sensor_id;sensor_type;location;lat;lon;timestamp;pressure;altitude;pressure_sealevel;temperature;humidity
50093;BME280;35974;47.752;10.290;2022-10-16T00:01:09;93888.97;;;11.12;99.68
50093;BME280;35974;47.752;10.290;2022-10-16T00:03:38;93894.56;;;11.22;99.70
50093;BME280;35974;47.752;10.290;2022-10-16T00:06:06;93898.00;;;11.16;100.00
50093;BME280;35974;47.752;10.290;2022-10-16T00:08:33;93904.25;;;11.22;100.00
50093;BME280;35974;47.752;10.290;2022-10-16T00:11:04;93880.94;;;11.07;100.00
50093;BME280;35974;47.752;10.290;2022-10-16T00:13:33;93865.66;;;11.04;100.00
50093;BME280;35974;47.752;10.290;2022-10-16T00:16:00;93922.69;;;11.47;99.09
50093;BME280;35974;47.752;10.290;2022-10-16T00:18:28;93906.69;;;11.23;99.90
50093;BME280;35974;47.752;10.290;2022-10-16T00:20:55;93918.75;;;11.24;100.00
50093;BME280;35974;47.752;10.290;2022-10-16T00:23:22;93888.56;;;11.15;99.66
50093;BME280;35974;47.752;10.290;2022-10-16T00:26:01;93918.72;;;11.38;98.89
50093;BME280;35974;47.752;10.290;2022-10-16T00:28:28;93870.06;;;10.96;99.36
50093;BME280;35974;47.752;10.290;2022-10-16T00:30:54;93896.78;;;11.25;98.39
50093;BME280;35974;47.752;10.290;2022-10-16T00:33:21;93917.97;;;11.17;98.83
50093;BME280;35974;47.752;10.290;2022-10-16T00:35:48;93905.50;;;11.06;99.20
50093;BME280;35974;47.752;10.290;2022-10-16T00:38:15;93893.09;;;10.81;99.46
50093;BME280;35974;47.752;10.290;2022-10-16T00:40:42;93907.97;;;10.87;99.83
50093;BME280;35974;47.752;10.290;2022-10-16T00:43:13;93909.97;;;10.85;100.00
50093;BME280;35974;47.752;10.290;2022-10-16T00:45:41;93885.06;;;10.62;99.63
50093;BME280;35974;47.752;10.290;2022-10-16T00:48:11;93910.41;;;10.82;99.36
50093;BME280;35974;47.752;10.290;2022-10-16T00:50:39;93915.66;;;10.82;99.50
50093;BME280;35974;47.752;10.290;2022-10-16T00:53:10;93880.66;;;10.56;99.51
50093;BME280;35974;47.752;10.290;2022-10-16T00:55:37;93880.44;;;10.65;99.69
50093;BME280;35974;47.752;10.290;2022-10-16T00:58:09;93899.94;;;10.82;100.00
50093;BME280;35974;47.752;10.290;2022-10-16T01:00:36;93893.50;;;10.78;100.00
50093;BME280;35974;47.752;10.290;2022-10-16T01:03:21;93896.69;;;10.80;100.00
50093;BME280;35974;47.752;10.290;2022-10-16T01:05:59;93878.19;;;10.75;100.00
50093;BME280;35974;47.752;10.290;2022-10-16T01:11:22;93911.56;;;10.99;100.00
50093;BME280;35974;47.752;10.290;2022-10-16T01:13:58;93909.75;;;11.07;100.00
50093;BME280;35974;47.752;10.290;2022-10-16T01:16:53;93912.97;;;11.09;100.00
50093;BME280;35974;47.752;10.290;2022-10-16T01:22:25;93901.28;;;11.05;100.00
50093;BME280;35974;47.752;10.290;2022-10-16T01:24:54;93907.91;;;11.14;100.00
50093;BME280;35974;47.752;10.290;2022-10-16T01:27:27;93887.19;;;11.06;100.00
50093;BME280;35974;47.752;10.290;2022-10-16T01:30:17;93894.56;;;11.22;100.00
50093;BME280;35974;47.752;10.290;2022-10-16T01:32:52;93910.69;;;11.32;100.00
50093;BME280;35974;47.752;10.290;2022-10-16T01:35:25;93893.28;;;11.45;99.92
50093;BME280;35974;47.752;10.290;2022-10-16T01:38:03;93896.13;;;11.36;100.00
50093;BME280;35974;47.752;10.290;2022-10-16T01:40:32;93882.44;;;11.34;100.00
50093;BME280;35974;47.752;10.290;2022-10-16T01:43:04;93909.81;;;11.52;100.00
50093;BME280;35974;47.752;10.290;2022-10-16T01:45:32;93894.06;;;11.45;100.00
50093;BME280;35974;47.752;10.290;2022-10-16T01:48:00;93894.94;;;11.39;100.00
50093;BME280;35974;47.752;10.290;2022-10-16T01:50:33;93884.03;;;11.35;100.00
50093;BME280;35974;47.752;10.290;2022-10-16T01:53:02;93889.72;;;11.32;100.00
50093;BME280;35974;47.752;10.290;2022-10-16T01:55:35;93917.41;;;11.60;100.00
50093;BME280;35974;47.752;10.290;2022-10-16T01:58:05;93884.44;;;11.46;100.00
50093;BME280;35974;47.752;10.290;2022-10-16T02:00:37;93876.34;;;11.47;100.00
50093;BME280;35974;47.752;10.290;2022-10-16T02:03:05;93885.34;;;11.58;100.00
50093;BME280;35974;47.752;10.290;2022-10-16T02:05:46;93890.00;;;11.56;100.00
50093;BME280;35974;47.752;10.290;2022-10-16T02:08:13;93902.88;;;11.64;100.00
50093;BME280;35974;47.752;10.290;2022-10-16T02:10:40;93906.25;;;11.78;99.83
50093;BME280;35974;47.752;10.290;2022-10-16T02:13:11;93910.50;;;11.72;100.00
50093;BME280;35974;47.752;10.290;2022-10-16T02:15:42;93859.41;;;11.50;99.82
50093;BME280;35974;47.752;10.290;2022-10-16T02:18:09;93888.34;;;11.68;99.43
50093;BME280;35974;47.752;10.290;2022-10-16T02:20:43;93877.50;;;11.58;99.66
50093;BME280;35974;47.752;10.290;2022-10-16T02:23:19;93900.84;;;11.66;99.90
50093;BME280;35974;47.752;10.290;2022-10-16T02:25:50;93884.84;;;11.43;100.00
50093;BME280;35974;47.752;10.290;2022-10-16T02:28:19;93921.88;;;11.53;100.00
50093;BME280;35974;47.752;10.290;2022-10-16T02:30:54;93847.94;;;10.92;100.00
50093;BME280;35974;47.752;10.290;2022-10-16T02:33:23;93901.13;;;11.51;98.87
50093;BME280;35974;47.752;10.290;2022-10-16T02:35:51;93925.13;;;11.42;99.53
50093;BME280;35974;47.752;10.290;2022-10-16T02:38:18;93912.69;;;11.30;99.37
50093;BME280;35974;47.752;10.290;2022-10-16T02:40:46;93906.66;;;11.30;98.76
50093;BME280;35974;47.752;10.290;2022-10-16T02:43:13;93910.69;;;11.19;98.70
50093;BME280;35974;47.752;10.290;2022-10-16T02:45:39;93887.78;;;11.08;99.12
50093;BME280;35974;47.752;10.290;2022-10-16T02:48:06;93880.94;;;11.07;99.09
50093;BME280;35974;47.752;10.290;2022-10-16T02:50:32;93895.84;;;11.13;99.76
50093;BME280;35974;47.752;10.290;2022-10-16T02:53:00;93897.44;;;11.14;99.78
50093;BME280;35974;47.752;10.290;2022-10-16T02:55:27;93881.63;;;11.34;98.32
50093;BME280;35974;47.752;10.290;2022-10-16T02:57:54;93906.56;;;11.50;97.95
50093;BME280;35974;47.752;10.290;2022-10-16T03:00:21;93912.31;;;11.20;99.84
50093;BME280;35974;47.752;10.290;2022-10-16T03:02:47;93899.03;;;11.15;99.58
50093;BME280;35974;47.752;10.290;2022-10-16T03:05:14;93931.59;;;11.46;98.69
50093;BME280;35974;47.752;10.290;2022-10-16T03:07:41;93908.25;;;11.24;99.59
50093;BME280;35974;47.752;10.290;2022-10-16T03:10:07;93915.13;;;11.25;99.90
50093;BME280;35974;47.752;10.290;2022-10-16T03:12:34;93934.44;;;11.38;99.53
50093;BME280;35974;47.752;10.290;2022-10-16T03:15:01;93935.66;;;11.28;100.00
50093;BME280;35974;47.752;10.290;2022-10-16T03:17:27;93912.72;;;11.17;100.00
50093;BME280;35974;47.752;10.290;2022-10-16T03:19:54;93931.63;;;11.39;99.81
50093;BME280;35974;47.752;10.290;2022-10-16T03:22:20;93912.72;;;11.24;99.73
50093;BME280;35974;47.752;10.290;2022-10-16T03:24:47;93908.28;;;11.17;100.00
50093;BME280;35974;47.752;10.290;2022-10-16T03:27:13;93940.84;;;11.42;99.63
50093;BME280;35974;47.752;10.290;2022-10-16T03:29:40;93909.94;;;11.12;100.00
50093;BME280;35974;47.752;10.290;2022-10-16T03:32:06;93909.13;;;11.11;100.00
50093;BME280;35974;47.752;10.290;2022-10-16T03:34:32;93906.50;;;11.18;100.00
50093;BME280;35974;47.752;10.290;2022-10-16T03:36:59;93892.16;;;11.21;100.00
50093;BME280;35974;47.752;10.290;2022-10-16T03:39:25;93889.72;;;11.32;100.00
50093;BME280;35974;47.752;10.290;2022-10-16T03:41:52;93885.47;;;11.31;100.00
50093;BME280;35974;47.752;10.290;2022-10-16T03:44:18;93886.47;;;11.44;100.00
50093;BME280;35974;47.752;10.290;2022-10-16T03:46:44;93864.25;;;11.46;99.71
50093;BME280;35974;47.752;10.290;2022-10-16T03:49:11;93886.88;;;11.41;100.00
50093;BME280;35974;47.752;10.290;2022-10-16T03:51:38;93906.56;;;11.50;100.00
50093;BME280;35974;47.752;10.290;2022-10-16T03:54:04;93872.31;;;11.45;100.00
50093;BME280;35974;47.752;10.290;2022-10-16T03:56:30;93851.03;;;11.34;100.00
50093;BME280;35974;47.752;10.290;2022-10-16T03:58:57;93897.97;;;11.75;99.85
50093;BME280;35974;47.752;10.290;2022-10-16T04:01:24;93895.19;;;11.69;100.00
50093;BME280;35974;47.752;10.290;2022-10-16T04:03:50;93901.19;;;11.77;100.00
50093;BME280;35974;47.752;10.290;2022-10-16T04:06:16;93866.56;;;11.68;98.88
50093;BME280;35974;47.752;10.290;2022-10-16T04:08:43;93878.13;;;11.92;98.44
50093;BME280;35974;47.752;10.290;2022-10-16T04:11:10;93901.78;;;12.17;96.93
50093;BME280;35974;47.752;10.290;2022-10-16T04:13:37;93862.41;;;11.85;97.88
50093;BME280;35974;47.752;10.290;2022-10-16T04:16:03;93881.81;;;11.78;98.58
50093;BME280;35974;47.752;10.290;2022-10-16T04:18:30;93884.63;;;11.83;97.79
50093;BME280;35974;47.752;10.290;2022-10-16T04:20:56;93927.72;;;12.00;97.29
50093;BME280;35974;47.752;10.290;2022-10-16T04:23:23;93910.66;;;11.78;98.41
50093;BME280;35974;47.752;10.290;2022-10-16T04:25:51;93935.31;;;12.08;97.27
50093;BME280;35974;47.752;10.290;2022-10-16T04:28:17;93942.69;;;11.93;98.17
50093;BME280;35974;47.752;10.290;2022-10-16T04:30:44;93924.56;;;11.85;98.77
50093;BME280;35974;47.752;10.290;2022-10-16T04:33:10;93918.94;;;11.75;98.66
50093;BME280;35974;47.752;10.290;2022-10-16T04:35:37;93908.91;;;11.71;98.75
50093;BME280;35974;47.752;10.290;2022-10-16T04:38:03;93893.09;;;11.85;97.57
50093;BME280;35974;47.752;10.290;2022-10-16T04:40:29;93910.25;;;11.81;98.17
50093;BME280;35974;47.752;10.290;2022-10-16T04:42:59;93941.88;;;11.86;98.64
50093;BME280;35974;47.752;10.290;2022-10-16T04:45:25;93940.78;;;11.68;99.19
50093;BME280;35974;47.752;10.290;2022-10-16T04:47:52;93940.88;;;11.87;98.44
50093;BME280;35974;47.752;10.290;2022-10-16T04:50:18;93925.72;;;11.89;97.24
50093;BME280;35974;47.752;10.290;2022-10-16T04:52:45;93939.91;;;11.75;98.28
50093;BME280;35974;47.752;10.290;2022-10-16T04:55:11;93922.59;;;11.73;97.57
50093;BME280;35974;47.752;10.290;2022-10-16T04:57:38;93961.22;;;11.98;97.61
50093;BME280;35974;47.752;10.290;2022-10-16T05:00:05;93949.56;;;11.94;96.76
50093;BME280;35974;47.752;10.290;2022-10-16T05:02:31;93945.09;;;11.88;96.81
50093;BME280;35974;47.752;10.290;2022-10-16T05:04:58;93940.78;;;11.68;97.84
50093;BME280;35974;47.752;10.290;2022-10-16T05:07:24;93936.34;;;11.62;98.55
50093;BME280;35974;47.752;10.290;2022-10-16T05:09:51;93933.97;;;11.54;99.42
50093;BME280;35974;47.752;10.290;2022-10-16T05:12:17;93967.38;;;11.65;99.87
50093;BME280;35974;47.752;10.290;2022-10-16T05:14:44;93933.50;;;11.70;98.06
50093;BME280;35974;47.752;10.290;2022-10-16T05:17:10;93925.94;;;11.49;98.74
50093;BME280;35974;47.752;10.290;2022-10-16T05:19:36;93942.84;;;11.53;98.71
50093;BME280;35974;47.752;10.290;2022-10-16T05:22:03;93965.19;;;11.62;99.22
50093;BME280;35974;47.752;10.290;2022-10-16T05:24:29;93967.00;;;11.55;99.76
50093;BME280;35974;47.752;10.290;2022-10-16T05:26:56;93979.06;;;11.69;98.91
50093;BME280;35974;47.752;10.290;2022-10-16T05:29:22;93959.00;;;11.36;99.44
50093;BME280;35974;47.752;10.290;2022-10-16T05:31:53;93931.63;;;11.32;99.60
50093;BME280;35974;47.752;10.290;2022-10-16T05:34:20;93979.84;;;11.77;98.36
50093;BME280;35974;47.752;10.290;2022-10-16T05:36:46;93956.94;;;11.59;98.17
50093;BME280;35974;47.752;10.290;2022-10-16T05:39:14;93958.09;;;11.69;97.29
50093;BME280;35974;47.752;10.290;2022-10-16T05:41:41;93954.56;;;11.44;98.38
50093;BME280;35974;47.752;10.290;2022-10-16T05:44:07;93961.81;;;11.42;99.12
50093;BME280;35974;47.752;10.290;2022-10-16T05:46:33;93961.63;;;11.36;99.21
50093;BME280;35974;47.752;10.290;2022-10-16T05:49:00;93969.03;;;11.53;98.59
50093;BME280;35974;47.752;10.290;2022-10-16T05:51:27;93971.44;;;11.61;98.42
50093;BME280;35974;47.752;10.290;2022-10-16T05:53:53;93982.28;;;11.71;98.02
50093;BME280;35974;47.752;10.290;2022-10-16T05:56:20;94006.66;;;11.79;98.55
50093;BME280;35974;47.752;10.290;2022-10-16T05:58:46;93984.72;;;11.60;98.41
50093;BME280;35974;47.752;10.290;2022-10-16T06:01:15;93985.16;;;11.57;98.80
50093;BME280;35974;47.752;10.290;2022-10-16T06:03:42;93996.00;;;11.73;98.46
50093;BME280;35974;47.752;10.290;2022-10-16T06:06:17;93973.47;;;11.59;98.80
50093;BME280;35974;47.752;10.290;2022-10-16T06:08:48;94012.06;;;11.84;99.30
50093;BME280;35974;47.752;10.290;2022-10-16T06:11:22;93999.53;;;11.99;97.86
50093;BME280;35974;47.752;10.290;2022-10-16T06:13:53;93997.75;;;11.93;98.29
50093;BME280;35974;47.752;10.290;2022-10-16T06:16:20;93999.97;;;11.96;98.63
50093;BME280;35974;47.752;10.290;2022-10-16T06:18:47;93995.91;;;12.00;98.24
50093;BME280;35974;47.752;10.290;2022-10-16T06:21:16;94008.78;;;12.02;98.66
50093;BME280;35974;47.752;10.290;2022-10-16T06:23:45;94017.66;;;12.07;99.33
50093;BME280;35974;47.752;10.290;2022-10-16T06:26:18;93987.06;;;11.88;99.25
50093;BME280;35974;47.752;10.290;2022-10-16T06:28:45;94003.59;;;11.95;99.81
50093;BME280;35974;47.752;10.290;2022-10-16T06:31:12;94001.13;;;12.00;99.56
50093;BME280;35974;47.752;10.290;2022-10-16T06:33:39;94021.22;;;12.20;99.47
50093;BME280;35974;47.752;10.290;2022-10-16T06:38:36;93986.78;;;12.09;99.24
50093;BME280;35974;47.752;10.290;2022-10-16T06:41:04;94026.41;;;12.33;99.11
50093;BME280;35974;47.752;10.290;2022-10-16T06:43:31;94018.34;;;12.28;99.62
50093;BME280;35974;47.752;10.290;2022-10-16T06:45:59;94036.41;;;12.50;99.31
50093;BME280;35974;47.752;10.290;2022-10-16T06:48:28;94047.66;;;12.57;98.82
50093;BME280;35974;47.752;10.290;2022-10-16T06:51:06;94042.00;;;12.60;98.77
50093;BME280;35974;47.752;10.290;2022-10-16T06:53:35;94055.66;;;12.69;98.72
50093;BME280;35974;47.752;10.290;2022-10-16T06:56:16;94054.38;;;12.78;98.63
50093;BME280;35974;47.752;10.290;2022-10-16T06:58:44;94030.66;;;12.66;98.42
50093;BME280;35974;47.752;10.290;2022-10-16T07:01:11;94026.56;;;12.70;98.69
50093;BME280;35974;47.752;10.290;2022-10-16T07:03:39;94010.03;;;12.70;97.80
50093;BME280;35974;47.752;10.290;2022-10-16T07:06:08;94072.34;;;13.06;98.24
50093;BME280;35974;47.752;10.290;2022-10-16T07:08:38;94062.72;;;13.00;98.19
50093;BME280;35974;47.752;10.290;2022-10-16T07:11:06;94055.69;;;12.94;98.62
50093;BME280;35974;47.752;10.290;2022-10-16T07:13:35;94064.31;;;13.01;98.12
50093;BME280;35974;47.752;10.290;2022-10-16T07:16:14;94067.88;;;13.13;97.44
50093;BME280;35974;47.752;10.290;2022-10-16T07:18:42;94055.16;;;13.10;97.84
50093;BME280;35974;47.752;10.290;2022-10-16T07:21:12;94048.91;;;13.11;97.67
50093;BME280;35974;47.752;10.290;2022-10-16T07:23:42;94081.00;;;13.45;97.69
50093;BME280;35974;47.752;10.290;2022-10-16T07:26:13;94030.25;;;13.19;96.82
50093;BME280;35974;47.752;10.290;2022-10-16T07:28:44;94086.53;;;13.55;97.12
50093;BME280;35974;47.752;10.290;2022-10-16T07:31:13;94082.03;;;13.63;97.36
50093;BME280;35974;47.752;10.290;2022-10-16T07:33:42;94067.72;;;13.59;96.73
50093;BME280;35974;47.752;10.290;2022-10-16T07:36:17;94084.25;;;13.84;96.12
50093;BME280;35974;47.752;10.290;2022-10-16T07:38:45;94084.97;;;13.91;95.16
50093;BME280;35974;47.752;10.290;2022-10-16T07:41:14;94083.56;;;13.89;94.80
50093;BME280;35974;47.752;10.290;2022-10-16T07:43:47;94080.16;;;13.88;94.51
50093;BME280;35974;47.752;10.290;2022-10-16T07:46:14;94062.03;;;13.80;93.81
50093;BME280;35974;47.752;10.290;2022-10-16T07:48:40;94088.31;;;13.99;93.80
50093;BME280;35974;47.752;10.290;2022-10-16T07:51:07;94070.41;;;13.89;93.73
50093;BME280;35974;47.752;10.290;2022-10-16T07:53:35;94065.53;;;13.93;93.23
50093;BME280;35974;47.752;10.290;2022-10-16T07:56:05;94063.13;;;13.91;93.41
50093;BME280;35974;47.752;10.290;2022-10-16T07:58:36;94065.81;;;14.03;92.74
50093;BME280;35974;47.752;10.290;2022-10-16T08:01:11;94060.00;;;14.01;92.77
50093;BME280;35974;47.752;10.290;2022-10-16T08:03:37;94070.50;;;14.19;92.86
50093;BME280;35974;47.752;10.290;2022-10-16T08:06:22;94107.59;;;14.67;91.98
50093;BME280;35974;47.752;10.290;2022-10-16T08:08:56;94086.53;;;14.67;92.41
50093;BME280;35974;47.752;10.290;2022-10-16T08:11:37;94089.03;;;14.92;91.69
50093;BME280;35974;47.752;10.290;2022-10-16T08:14:03;94093.53;;;15.15;91.84
50093;BME280;35974;47.752;10.290;2022-10-16T08:16:30;94091.06;;;15.44;89.93
50093;BME280;35974;47.752;10.290;2022-10-16T08:18:56;94094.50;;;15.56;88.97
50093;BME280;35974;47.752;10.290;2022-10-16T08:21:23;94081.78;;;15.65;87.59
50093;BME280;35974;47.752;10.290;2022-10-16T08:23:58;94088.06;;;15.75;86.28
50093;BME280;35974;47.752;10.290;2022-10-16T08:26:36;94094.94;;;16.00;84.20
50093;BME280;35974;47.752;10.290;2022-10-16T08:29:08;94111.91;;;16.28;82.53
50093;BME280;35974;47.752;10.290;2022-10-16T08:31:39;94100.19;;;16.24;82.89
50093;BME280;35974;47.752;10.290;2022-10-16T08:34:11;94097.00;;;16.22;83.04
50093;BME280;35974;47.752;10.290;2022-10-16T08:36:37;94096.75;;;16.35;83.05
50093;BME280;35974;47.752;10.290;2022-10-16T08:39:07;94107.50;;;16.45;82.72
50093;BME280;35974;47.752;10.290;2022-10-16T08:47:25;94130.25;;;17.33;77.77
50093;BME280;35974;47.752;10.290;2022-10-16T08:50:00;94125.69;;;17.45;77.20
50093;BME280;35974;47.752;10.290;2022-10-16T08:52:30;94100.13;;;17.34;75.97
50093;BME280;35974;47.752;10.290;2022-10-16T08:54:58;94114.94;;;17.35;76.83
50093;BME280;35974;47.752;10.290;2022-10-16T08:57:25;94094.97;;;17.10;74.14
50093;BME280;35974;47.752;10.290;2022-10-16T08:59:57;94098.25;;;17.68;74.01
50093;BME280;35974;47.752;10.290;2022-10-16T09:02:30;94127.69;;;18.06;74.14
50093;BME280;35974;47.752;10.290;2022-10-16T09:05:17;94134.66;;;18.12;73.44
50093;BME280;35974;47.752;10.290;2022-10-16T09:10:57;94138.88;;;18.52;73.94
50093;BME280;35974;47.752;10.290;2022-10-16T09:16:28;94135.91;;;18.71;72.62
50093;BME280;35974;47.752;10.290;2022-10-16T09:19:01;94144.06;;;18.86;70.98
50093;BME280;35974;47.752;10.290;2022-10-16T09:21:43;94139.88;;;18.90;71.66
50093;BME280;35974;47.752;10.290;2022-10-16T09:24:16;94145.75;;;18.97;71.23
50093;BME280;35974;47.752;10.290;2022-10-16T09:26:44;94133.06;;;18.99;70.56
50093;BME280;35974;47.752;10.290;2022-10-16T09:29:15;94154.94;;;19.12;70.63
50093;BME280;35974;47.752;10.290;2022-10-16T09:31:42;94159.69;;;19.10;69.75
50093;BME280;35974;47.752;10.290;2022-10-16T09:34:30;94140.84;;;18.84;70.27
50093;BME280;35974;47.752;10.290;2022-10-16T09:36:59;94151.56;;;18.94;69.24
50093;BME280;35974;47.752;10.290;2022-10-16T09:39:27;94147.94;;;18.78;70.20
50093;BME280;35974;47.752;10.290;2022-10-16T09:41:55;94148.66;;;18.74;70.75
50093;BME280;35974;47.752;10.290;2022-10-16T09:46:48;94155.28;;;18.93;70.00
50093;BME280;35974;47.752;10.290;2022-10-16T09:49:25;94163.50;;;19.19;69.87
50093;BME280;35974;47.752;10.290;2022-10-16T09:52:09;94145.97;;;19.18;68.65
50093;BME280;35974;47.752;10.290;2022-10-16T09:54:37;94153.75;;;19.57;69.84
50093;BME280;35974;47.752;10.290;2022-10-16T09:57:07;94160.44;;;19.92;68.41
50093;BME280;35974;47.752;10.290;2022-10-16T09:59:55;94156.41;;;20.27;63.42
50093;BME280;35974;47.752;10.290;2022-10-16T10:02:35;94163.88;;;20.35;64.05
50093;BME280;35974;47.752;10.290;2022-10-16T10:05:04;94165.50;;;20.36;62.87
50093;BME280;35974;47.752;10.290;2022-10-16T10:07:33;94159.59;;;20.29;63.93
50093;BME280;35974;47.752;10.290;2022-10-16T10:10:34;94177.09;;;20.20;65.50
50093;BME280;35974;47.752;10.290;2022-10-16T10:13:03;94131.88;;;20.15;66.20
50093;BME280;35974;47.752;10.290;2022-10-16T10:15:36;94158.63;;;20.45;66.15
50093;BME280;35974;47.752;10.290;2022-10-16T10:18:21;94173.13;;;20.70;64.43
50093;BME280;35974;47.752;10.290;2022-10-16T10:21:00;94159.84;;;20.70;64.12
50093;BME280;35974;47.752;10.290;2022-10-16T10:23:29;94164.75;;;21.04;60.00
50093;BME280;35974;47.752;10.290;2022-10-16T10:26:09;94146.16;;;21.14;59.93
50093;BME280;35974;47.752;10.290;2022-10-16T10:34:49;94141.41;;;21.37;47.22
50093;BME280;35974;47.752;10.290;2022-10-16T10:37:48;94169.13;;;21.62;50.98
50093;BME280;35974;47.752;10.290;2022-10-16T10:43:24;94141.69;;;21.97;41.29
50093;BME280;35974;47.752;10.290;2022-10-16T10:46:01;94133.44;;;21.93;43.35
50093;BME280;35974;47.752;10.290;2022-10-16T10:57:25;94148.38;;;21.79;41.65
50093;BME280;35974;47.752;10.290;2022-10-16T11:00:38;94160.59;;;22.01;40.89
50093;BME280;35974;47.752;10.290;2022-10-16T11:03:17;94159.53;;;22.12;43.08
50093;BME280;35974;47.752;10.290;2022-10-16T11:05:51;94140.38;;;21.84;43.69
50093;BME280;35974;47.752;10.290;2022-10-16T11:08:41;94156.03;;;22.22;44.32
50093;BME280;35974;47.752;10.290;2022-10-16T11:14:11;94149.94;;;22.21;40.52
50093;BME280;35974;47.752;10.290;2022-10-16T11:16:58;94115.84;;;22.03;41.87
50093;BME280;35974;47.752;10.290;2022-10-16T11:27:52;94142.47;;;22.13;40.18
50093;BME280;35974;47.752;10.290;2022-10-16T11:30:29;94150.66;;;22.53;42.30
50093;BME280;35974;47.752;10.290;2022-10-16T11:35:55;94140.72;;;22.74;43.62
50093;BME280;35974;47.752;10.290;2022-10-16T11:39:04;94138.03;;;22.79;40.87
50093;BME280;35974;47.752;10.290;2022-10-16T11:44:25;94120.00;;;22.50;40.06
50093;BME280;35974;47.752;10.290;2022-10-16T11:47:19;94137.53;;;22.72;40.24
50093;BME280;35974;47.752;10.290;2022-10-16T11:52:55;94140.69;;;22.84;41.05
50093;BME280;35974;47.752;10.290;2022-10-16T11:55:31;94121.44;;;22.92;40.49
50093;BME280;35974;47.752;10.290;2022-10-16T11:58:09;94125.09;;;23.12;41.30
50093;BME280;35974;47.752;10.290;2022-10-16T12:01:10;94103.88;;;22.81;42.98
50093;BME280;35974;47.752;10.290;2022-10-16T12:03:46;94131.00;;;22.98;40.72
50093;BME280;35974;47.752;10.290;2022-10-16T12:08:52;94113.47;;;22.82;39.40
50093;BME280;35974;47.752;10.290;2022-10-16T12:13:46;94123.88;;;23.38;38.33
50093;BME280;35974;47.752;10.290;2022-10-16T12:18:45;94119.81;;;23.46;39.51
50093;BME280;35974;47.752;10.290;2022-10-16T12:21:13;94122.22;;;23.43;39.85
50093;BME280;35974;47.752;10.290;2022-10-16T12:23:49;94121.06;;;23.54;37.86
50093;BME280;35974;47.752;10.290;2022-10-16T12:26:25;94098.22;;;23.37;40.86
50093;BME280;35974;47.752;10.290;2022-10-16T12:28:53;94107.66;;;23.59;38.32
50093;BME280;35974;47.752;10.290;2022-10-16T12:31:21;94101.22;;;23.65;38.76
50093;BME280;35974;47.752;10.290;2022-10-16T12:34:28;94121.28;;;23.63;38.87
50093;BME280;35974;47.752;10.290;2022-10-16T12:37:08;94096.31;;;23.77;39.21
50093;BME280;35974;47.752;10.290;2022-10-16T12:39:35;94096.75;;;23.90;37.65
50093;BME280;35974;47.752;10.290;2022-10-16T12:42:05;94110.16;;;23.85;37.07
50093;BME280;35974;47.752;10.290;2022-10-16T12:44:34;94093.56;;;23.88;38.49
50093;BME280;35974;47.752;10.290;2022-10-16T12:47:02;94107.13;;;23.62;37.94
50093;BME280;35974;47.752;10.290;2022-10-16T12:49:37;94082.56;;;23.60;37.73
50093;BME280;35974;47.752;10.290;2022-10-16T12:52:04;94082.56;;;23.60;37.62
50093;BME280;35974;47.752;10.290;2022-10-16T12:54:50;94094.31;;;23.59;39.62
50093;BME280;35974;47.752;10.290;2022-10-16T13:00:28;94107.38;;;23.66;39.78
50093;BME280;35974;47.752;10.290;2022-10-16T13:06:17;94107.66;;;23.59;40.05
50093;BME280;35974;47.752;10.290;2022-10-16T13:14:44;94089.19;;;23.33;39.28
50093;BME280;35974;47.752;10.290;2022-10-16T13:17:30;94114.63;;;23.60;39.60
50093;BME280;35974;47.752;10.290;2022-10-16T13:25:43;94109.28;;;23.60;40.34
50093;BME280;35974;47.752;10.290;2022-10-16T13:28:14;94097.06;;;23.14;40.80
50093;BME280;35974;47.752;10.290;2022-10-16T13:30:53;94098.13;;;23.53;40.04
50093;BME280;35974;47.752;10.290;2022-10-16T13:33:37;94119.97;;;23.60;41.13
50093;BME280;35974;47.752;10.290;2022-10-16T13:36:06;94124.75;;;23.63;40.80
50093;BME280;35974;47.752;10.290;2022-10-16T13:38:34;94082.66;;;23.50;40.09
50093;BME280;35974;47.752;10.290;2022-10-16T13:41:13;94117.78;;;23.62;40.79
50093;BME280;35974;47.752;10.290;2022-10-16T13:43:49;94116.00;;;23.57;39.77
50093;BME280;35974;47.752;10.290;2022-10-16T13:46:24;94082.16;;;23.43;40.49
50093;BME280;35974;47.752;10.290;2022-10-16T13:49:10;94123.63;;;23.69;40.27
50093;BME280;35974;47.752;10.290;2022-10-16T13:51:38;94099.94;;;23.23;40.33
50093;BME280;35974;47.752;10.290;2022-10-16T13:54:05;94116.03;;;23.08;41.32
50093;BME280;35974;47.752;10.290;2022-10-16T13:56:32;94118.53;;;23.38;40.27
50093;BME280;35974;47.752;10.290;2022-10-16T13:59:05;94118.84;;;23.66;40.70
50093;BME280;35974;47.752;10.290;2022-10-16T14:01:34;94105.25;;;23.23;40.41
50093;BME280;35974;47.752;10.290;2022-10-16T14:04:04;94106.66;;;23.55;40.40
50093;BME280;35974;47.752;10.290;2022-10-16T14:06:32;94103.06;;;23.35;40.38
50093;BME280;35974;47.752;10.290;2022-10-16T14:09:04;94110.31;;;23.64;39.62
50093;BME280;35974;47.752;10.290;2022-10-16T14:11:32;94117.00;;;23.62;40.65
50093;BME280;35974;47.752;10.290;2022-10-16T14:14:00;94123.31;;;23.76;39.46
50093;BME280;35974;47.752;10.290;2022-10-16T14:16:29;94141.81;;;23.67;38.78
50093;BME280;35974;47.752;10.290;2022-10-16T14:19:04;94117.88;;;23.52;40.68
50093;BME280;35974;47.752;10.290;2022-10-16T14:21:34;94136.06;;;23.50;40.86
50093;BME280;35974;47.752;10.290;2022-10-16T14:24:10;94140.31;;;23.56;40.76
50093;BME280;35974;47.752;10.290;2022-10-16T14:26:44;94124.88;;;23.48;42.17
50093;BME280;35974;47.752;10.290;2022-10-16T14:29:19;94115.84;;;23.38;42.08
50093;BME280;35974;47.752;10.290;2022-10-16T14:32:01;94146.19;;;23.53;42.26
50093;BME280;35974;47.752;10.290;2022-10-16T14:34:33;94143.56;;;23.48;42.36